EDT,Max TemperatureF,Mean TemperatureF,Min TemperatureF,Max Dew PointF,MeanDew PointF,Min DewpointF,Max Humidity, Mean Humidity, Min Humidity, Max Sea Level PressureIn, Mean Sea Level PressureIn, Min Sea Level PressureIn, Max VisibilityMiles, Mean VisibilityMiles, Min VisibilityMiles, Max Wind SpeedMPH, Mean Wind SpeedMPH, Max Gust SpeedMPH,PrecipitationIn, CloudCover, Events, WindDirDegrees
2013-3-1,41,37,33,32,29,26,87,71,57,29.70,29.62,29.55,10,10,10,10,4,,0.00,8,,335
2013-3-2,43,38,32,28,25,24,73,62,51,29.69,29.67,29.63,10,10,10,8,5,,0.00,6,,313
2013-3-3,39,36,32,32,27,23,82,72,60,29.66,29.62,29.58,10,8,2,10,6,22,0.00,8,Rain-Snow,301
2013-3-4,39,34,30,27,23,19,75,63,50,29.75,29.64,29.59,10,9,2,17,11,26,0.00,6,Snow,301
2013-3-5,45,38,32,34,27,20,87,66,48,30.09,29.98,29.77,10,10,10,10,7,21,0.00,7,,360
2013-3-6,39,36,33,34,31,28,87,80,65,30.14,30.12,30.07,10,7,2,23,14,37,0.16,8,Rain-Snow,55
2013-3-7,35,34,32,30,28,25,87,82,72,30.12,30.07,30.02,10,3,0,24,17,32,0.01,8,Fog-Rain-Snow,21
2013-3-8,43,36,30,28,26,19,93,76,41,30.17,30.03,29.97,10,4,0,18,14,29,0.16,7,Fog-Snow,13
2013-3-9,45,36,28,27,22,17,85,57,41,30.38,30.28,30.18,10,10,8,14,8,,0.00,0,,51
2013-3-10,44,34,23,30,25,19,93,78,53,30.44,30.39,30.31,10,7,0,7,1,,0.00,1,Fog,110
2013-3-11,53,44,35,39,33,28,82,70,40,30.34,30.23,30.16,10,10,10,10,6,,0.00,3,,199
2013-3-12,55,50,44,52,46,39,94,84,77,30.17,29.94,29.74,10,8,2,12,6,22,0.27,8,Rain,157
2013-3-13,53,45,35,52,33,19,94,63,32,29.79,29.75,29.71,10,10,8,15,8,21,0.00,3,,273
2013-3-14,37,30,23,23,14,5,66,49,40,29.84,29.77,29.71,10,10,10,21,10,28,0.00,6,,272
2013-3-15,42,30,19,27,11,3,75,47,25,29.87,29.76,29.64,10,10,8,16,12,25,0.00,4,Snow,276
2013-3-16,39,34,28,20,12,6,59,42,28,29.91,29.82,29.70,10,10,10,12,8,22,0.00,3,,313
2013-3-17,37,30,23,14,7,0,68,41,24,30.35,30.08,29.91,10,10,10,18,6,26,0.00,1,,325
2013-3-18,39,28,18,25,8,-2,82,45,21,30.48,30.37,30.28,10,9,2,8,4,,0.00,2,Snow,230
2013-3-19,35,32,27,31,29,23,93,87,81,30.26,29.89,29.64,7,1,0,25,11,38,0.66,8,Fog-Snow-Thunderstorm,60
2013-3-20,37,31,25,22,20,17,81,64,44,29.83,29.75,29.71,10,10,6,23,10,30,0.00,5,Snow,261
2013-3-21,37,30,24,27,19,10,82,63,33,29.82,29.72,29.63,10,10,9,7,4,,0.00,6,,210
2013-3-22,41,34,28,27,18,13,86,53,35,29.73,29.67,29.62,10,10,8,15,6,23,0.00,6,,280
2013-3-23,43,35,28,20,17,14,66,49,32,29.78,29.71,29.64,10,10,10,22,12,33,0.00,4,,276
2013-3-24,46,39,33,26,21,19,67,50,37,29.82,29.79,29.74,10,10,10,17,9,26,0.00,3,,309
2013-3-25,42,36,30,31,28,23,79,72,67,29.78,29.67,29.57,10,10,10,15,5,24,0.00,4,,36
2013-3-26,51,42,35,27,22,17,67,47,28,29.79,29.67,29.57,10,10,10,12,9,21,0.00,4,,333
2013-3-27,55,42,30,32,24,21,70,48,28,29.89,29.80,29.75,10,10,10,21,7,29,0.00,3,,312
2013-3-28,48,42,37,34,31,27,87,67,46,30.03,29.95,29.89,10,10,10,12,6,,0.01,8,Rain,345
2013-3-29,57,45,33,33,30,28,82,55,33,30.06,30.03,29.98,10,10,10,10,4,20,0.00,5,,283
2013-3-30,57,46,37,31,22,12,70,42,18,30.11,30.06,30.02,10,10,10,15,6,20,0.00,2,,311
2013-3-31,62,46,30,37,24,19,75,47,20,30.14,30.03,29.79,10,10,10,16,4,25,0.01,2,Rain,185